createdAt,value
2022-10-10T00:01:20.113Z,1.60
2022-10-10T00:03:47.972Z,1.70
2022-10-10T00:06:15.936Z,1.50
2022-10-10T00:08:44.245Z,1.33
2022-10-10T00:11:13.302Z,1.40
2022-10-10T00:13:41.090Z,1.35
2022-10-10T00:16:09.365Z,1.60
2022-10-10T00:18:38.055Z,1.52
2022-10-10T00:21:06.528Z,1.70
2022-10-10T00:23:33.950Z,1.48
2022-10-10T00:26:05.571Z,1.20
2022-10-10T00:28:38.525Z,1.12
2022-10-10T00:31:08.817Z,1.35
2022-10-10T00:33:37.286Z,1.50
2022-10-10T00:36:05.639Z,1.40
2022-10-10T00:38:33.396Z,1.50
2022-10-10T00:41:00.929Z,0.93
2022-10-10T00:43:29.085Z,1.30
2022-10-10T00:45:56.774Z,1.02
2022-10-10T00:48:40.289Z,1.00
2022-10-10T00:51:17.070Z,1.15
2022-10-10T00:53:53.238Z,0.90
2022-10-10T00:56:25.146Z,1.30
2022-10-10T00:58:54.771Z,1.25
2022-10-10T01:01:22.588Z,1.33
2022-10-10T01:03:49.948Z,1.15
2022-10-10T01:06:17.414Z,1.08
2022-10-10T01:08:45.137Z,1.10
2022-10-10T01:11:34.390Z,0.95
2022-10-10T01:14:11.315Z,1.08
2022-10-10T01:16:50.544Z,1.05
2022-10-10T01:19:24.208Z,1.27
2022-10-10T01:22:08.617Z,1.23
2022-10-10T01:24:56.656Z,0.93
2022-10-10T01:27:41.979Z,1.08
2022-10-10T01:30:11.633Z,1.10
2022-10-10T01:32:56.078Z,1.30
2022-10-10T01:38:17.629Z,1.08
2022-10-10T01:40:53.992Z,0.98
2022-10-10T01:43:21.353Z,1.10
2022-10-10T01:45:51.296Z,1.00
2022-10-10T01:48:27.450Z,1.27
2022-10-10T01:51:07.127Z,0.90
2022-10-10T01:53:52.971Z,1.10
2022-10-10T01:56:44.811Z,1.17
2022-10-10T01:59:49.960Z,1.25
2022-10-10T02:02:41.857Z,1.00
2022-10-10T02:05:15.981Z,0.90
2022-10-10T02:07:52.357Z,1.10
2022-10-10T02:10:24.251Z,1.00
2022-10-10T02:12:52.148Z,1.00
2022-10-10T02:15:22.331Z,1.08
2022-10-10T02:17:50.862Z,1.40
2022-10-10T02:20:21.212Z,1.30
2022-10-10T02:22:50.477Z,1.02
2022-10-10T02:25:22.630Z,1.00
2022-10-10T02:27:58.358Z,1.37
2022-10-10T02:30:26.120Z,1.33
2022-10-10T02:33:01.222Z,1.50
2022-10-10T02:37:58.902Z,1.30
2022-10-10T02:40:29.137Z,1.17
2022-10-10T02:42:57.922Z,1.35
2022-10-10T02:45:25.843Z,1.20
2022-10-10T02:47:53.536Z,1.40
2022-10-10T02:50:22.303Z,1.50
2022-10-10T02:52:49.801Z,1.25
2022-10-10T02:55:17.494Z,1.30
2022-10-10T02:57:45.117Z,1.30
2022-10-10T03:00:13.099Z,1.27
2022-10-10T03:02:40.451Z,1.10
2022-10-10T03:05:08.596Z,1.08
2022-10-10T03:07:36.165Z,1.20
2022-10-10T03:10:06.169Z,1.50
2022-10-10T03:12:34.908Z,1.30
2022-10-10T03:15:02.593Z,1.15
2022-10-10T03:17:30.080Z,1.30
2022-10-10T03:19:57.703Z,1.25
2022-10-10T03:22:25.091Z,1.40
2022-10-10T03:24:52.437Z,1.48
2022-10-10T03:27:20.069Z,1.25
2022-10-10T03:29:47.424Z,1.40
2022-10-10T03:32:14.753Z,1.30
2022-10-10T03:34:42.363Z,1.30
2022-10-10T03:37:09.793Z,1.20
2022-10-10T03:39:37.565Z,1.20
2022-10-10T03:42:05.250Z,1.48
2022-10-10T03:44:32.770Z,1.67
2022-10-10T03:47:00.150Z,1.37
2022-10-10T03:49:27.816Z,1.55
2022-10-10T03:51:55.218Z,1.62
2022-10-10T03:54:22.620Z,1.12
2022-10-10T03:56:50.240Z,1.62
2022-10-10T03:59:17.612Z,1.25
2022-10-10T04:01:45.014Z,1.35
2022-10-10T04:04:12.714Z,1.35
2022-10-10T04:06:40.181Z,1.58
2022-10-10T04:09:07.629Z,1.40
2022-10-10T04:11:37.021Z,1.50
2022-10-10T04:14:04.414Z,1.60
2022-10-10T04:16:31.753Z,1.62
2022-10-10T04:18:59.378Z,1.73
2022-10-10T04:21:26.777Z,1.40
2022-10-10T04:23:54.128Z,1.40
2022-10-10T04:26:21.760Z,1.60
2022-10-10T04:28:49.239Z,1.75
2022-10-10T04:31:16.640Z,1.60
2022-10-10T04:33:44.379Z,1.77
2022-10-10T04:36:11.839Z,1.58
2022-10-10T04:38:39.175Z,1.92
2022-10-10T04:41:07.094Z,1.35
2022-10-10T04:43:34.519Z,1.58
2022-10-10T04:46:02.063Z,1.73
2022-10-10T04:48:29.736Z,1.42
2022-10-10T04:50:58.458Z,1.45
2022-10-10T04:53:26.947Z,1.17
2022-10-10T04:55:54.583Z,1.27
2022-10-10T04:58:21.950Z,1.52
2022-10-10T05:00:53.357Z,1.50
2022-10-10T05:03:22.195Z,1.50
2022-10-10T05:05:50.119Z,1.70
2022-10-10T05:08:18.323Z,1.50
2022-10-10T05:10:46.925Z,1.50
2022-10-10T05:13:15.580Z,1.40
2022-10-10T05:15:43.333Z,1.67
2022-10-10T05:18:11.225Z,1.48
2022-10-10T05:20:38.620Z,1.58
2022-10-10T05:23:06.069Z,1.35
2022-10-10T05:25:33.715Z,1.50
2022-10-10T05:28:01.083Z,2.20
2022-10-10T05:30:28.422Z,1.42
2022-10-10T05:32:56.272Z,1.30
2022-10-10T05:35:23.675Z,1.30
2022-10-10T05:37:51.034Z,1.60
2022-10-10T05:40:18.679Z,1.52
2022-10-10T05:42:47.105Z,1.85
2022-10-10T05:45:14.485Z,1.77
2022-10-10T05:47:42.154Z,1.50
2022-10-10T05:50:22.904Z,2.17
2022-10-10T05:52:51.083Z,1.92
2022-10-10T05:55:18.615Z,1.50
2022-10-10T05:57:46.384Z,1.30
2022-10-10T06:00:14.079Z,1.80
2022-10-10T06:02:41.802Z,1.90
2022-10-10T06:05:09.434Z,2.15
2022-10-10T06:08:02.530Z,1.50
2022-10-10T06:10:24.655Z,2.03
2022-10-10T06:12:52.321Z,2.10
2022-10-10T06:15:19.799Z,2.00
2022-10-10T06:17:47.478Z,1.83
2022-10-10T06:20:14.858Z,1.60
2022-10-10T06:22:42.202Z,1.52
2022-10-10T06:25:29.000Z,1.58
2022-10-10T06:27:57.270Z,1.30
2022-10-10T06:30:25.054Z,1.50
2022-10-10T06:32:56.480Z,4.03
2022-10-10T06:35:24.850Z,1.15
2022-10-10T06:37:52.220Z,1.30
2022-10-10T06:40:19.644Z,1.52
2022-10-10T06:42:47.259Z,1.95
2022-10-10T06:45:14.688Z,1.80
2022-10-10T06:47:42.108Z,1.58
2022-10-10T06:50:09.786Z,1.42
2022-10-10T06:52:37.135Z,2.53
2022-10-10T06:55:04.960Z,1.42
2022-10-10T06:57:32.714Z,1.30
2022-10-10T07:00:00.112Z,1.40
2022-10-10T07:02:28.622Z,1.42
2022-10-10T07:04:56.277Z,1.40
2022-10-10T07:07:23.607Z,1.35
2022-10-10T07:09:50.920Z,1.50
2022-10-10T07:12:18.564Z,1.48
2022-10-10T07:14:45.940Z,1.35
2022-10-10T07:17:13.286Z,1.75
2022-10-10T07:19:40.907Z,1.67
2022-10-10T07:22:08.266Z,1.90
2022-10-10T07:24:36.982Z,1.50
2022-10-10T07:27:08.638Z,1.45
2022-10-10T07:29:36.299Z,1.75
2022-10-10T07:32:03.655Z,1.60
2022-10-10T07:34:31.739Z,1.65
2022-10-10T07:36:59.084Z,1.60
2022-10-10T07:39:26.440Z,1.62
2022-10-10T07:41:54.072Z,1.87
2022-10-10T07:44:23.584Z,1.90
2022-10-10T07:46:50.919Z,1.90
2022-10-10T07:49:18.581Z,1.60
2022-10-10T07:51:46.024Z,1.92
2022-10-10T07:54:13.421Z,1.80
2022-10-10T07:56:41.032Z,1.83
2022-10-10T07:59:08.419Z,2.08
2022-10-10T08:01:35.840Z,1.98
2022-10-10T08:04:03.572Z,1.50
2022-10-10T08:06:30.910Z,1.65
2022-10-10T08:08:58.307Z,1.90
2022-10-10T08:11:25.932Z,2.00
2022-10-10T08:13:53.316Z,2.03
2022-10-10T08:16:20.852Z,2.30
2022-10-10T08:18:48.506Z,2.17
2022-10-10T08:21:16.423Z,2.80
2022-10-10T08:23:44.065Z,2.22
2022-10-10T08:26:13.512Z,1.92
2022-10-10T08:28:41.267Z,1.92
2022-10-10T08:31:14.515Z,2.10
2022-10-10T08:33:43.316Z,1.75
2022-10-10T08:36:13.502Z,1.67
2022-10-10T08:38:40.956Z,1.62
2022-10-10T08:41:11.359Z,1.92
2022-10-10T08:43:45.711Z,1.65
2022-10-10T08:48:46.719Z,1.30
2022-10-10T08:51:21.842Z,1.20
2022-10-10T08:53:52.231Z,1.60
2022-10-10T08:56:26.766Z,1.17
2022-10-10T08:58:59.070Z,1.23
2022-10-10T09:01:36.667Z,1.30
2022-10-10T09:04:24.454Z,1.23
2022-10-10T09:07:37.851Z,1.05
2022-10-10T09:10:28.285Z,1.25
2022-10-10T09:13:02.056Z,1.27
2022-10-10T09:15:41.562Z,1.48
2022-10-10T09:18:38.512Z,1.48
2022-10-10T09:21:34.028Z,1.27
2022-10-10T09:24:24.195Z,1.20
2022-10-10T09:26:56.709Z,1.30
2022-10-10T09:29:33.253Z,1.20
2022-10-10T09:32:12.172Z,1.52
2022-10-10T09:34:43.106Z,1.30
2022-10-10T09:37:45.671Z,1.05
2022-10-10T09:40:14.314Z,1.30
2022-10-10T09:42:43.802Z,1.20
2022-10-10T09:45:24.826Z,1.00
2022-10-10T09:47:55.238Z,7.20
2022-10-10T09:50:23.909Z,2.83
2022-10-10T09:52:52.074Z,1.05
2022-10-10T09:55:22.369Z,1.30
2022-10-10T09:57:52.046Z,1.05
2022-10-10T10:00:19.623Z,1.12
2022-10-10T10:03:04.542Z,1.30
2022-10-10T10:07:59.412Z,1.40
2022-10-10T10:10:27.695Z,1.50
2022-10-10T10:12:55.651Z,1.10
2022-10-10T10:15:25.462Z,1.15
2022-10-10T10:18:19.450Z,1.35
2022-10-10T10:20:52.634Z,1.58
2022-10-10T10:23:56.464Z,1.50
2022-10-10T10:26:29.227Z,1.48
2022-10-10T10:28:58.039Z,1.30
2022-10-10T10:31:47.853Z,1.62
2022-10-10T10:34:36.939Z,1.40
2022-10-10T10:37:12.731Z,1.40
2022-10-10T10:40:17.963Z,1.12
2022-10-10T10:43:06.959Z,1.00
2022-10-10T10:46:16.204Z,1.73
2022-10-10T10:49:03.381Z,1.23
2022-10-10T10:51:39.734Z,1.40
2022-10-10T10:54:40.482Z,1.23
2022-10-10T10:57:36.880Z,1.33
2022-10-10T11:00:47.254Z,1.00
2022-10-10T11:05:18.328Z,1.35
2022-10-10T11:06:54.237Z,0.90
2022-10-10T11:09:55.016Z,1.35
2022-10-10T11:12:51.060Z,0.95
2022-10-10T11:15:23.981Z,1.33
2022-10-10T11:18:01.626Z,1.10
2022-10-10T11:20:36.277Z,0.95
2022-10-10T11:23:43.033Z,1.30
2022-10-10T11:26:19.423Z,1.20
2022-10-10T11:28:59.377Z,1.23
2022-10-10T11:31:31.998Z,1.08
2022-10-10T11:34:05.148Z,1.02
2022-10-10T11:36:35.484Z,1.12
2022-10-10T11:39:39.634Z,1.27
2022-10-10T11:42:15.236Z,1.00
2022-10-10T11:44:46.645Z,1.30
2022-10-10T11:47:35.865Z,0.95
2022-10-10T11:50:12.604Z,0.93
2022-10-10T11:52:53.182Z,1.00
2022-10-10T11:55:29.048Z,1.10
2022-10-10T11:58:26.238Z,1.12
2022-10-10T12:01:02.069Z,1.33
2022-10-10T12:03:29.784Z,1.30
2022-10-10T12:06:07.862Z,1.20
2022-10-10T12:08:44.107Z,1.33
2022-10-10T12:11:33.758Z,1.08
2022-10-10T12:14:15.637Z,1.00
2022-10-10T12:16:43.313Z,1.05
2022-10-10T12:19:20.027Z,1.05
2022-10-10T12:21:59.612Z,0.75
2022-10-10T12:24:31.181Z,0.88
2022-10-10T12:26:58.386Z,1.10
2022-10-10T12:30:08.034Z,0.98
2022-10-10T12:32:43.689Z,0.90
2022-10-10T12:35:41.773Z,1.20
2022-10-10T12:38:23.897Z,1.00
2022-10-10T12:40:57.450Z,1.10
2022-10-10T12:43:52.203Z,1.20
2022-10-10T12:46:32.453Z,1.23
2022-10-10T12:49:14.220Z,0.73
2022-10-10T12:51:42.226Z,1.10
2022-10-10T12:54:22.666Z,1.00
2022-10-10T12:56:52.552Z,1.15
2022-10-10T12:59:24.055Z,0.90
2022-10-10T13:01:57.603Z,1.10
2022-10-10T13:04:26.061Z,1.37
2022-10-10T13:06:56.204Z,1.00
2022-10-10T13:09:35.349Z,1.37
2022-10-10T13:12:06.083Z,1.52
2022-10-10T13:14:42.877Z,7.07
2022-10-10T13:17:21.743Z,2.00
2022-10-10T13:19:49.868Z,1.67
2022-10-10T13:22:18.390Z,1.10
2022-10-10T13:24:46.087Z,3.95
2022-10-10T13:27:22.070Z,1.73
2022-10-10T13:29:50.149Z,1.23
2022-10-10T13:32:21.419Z,1.50
2022-10-10T13:34:53.328Z,1.17
2022-10-10T13:37:21.075Z,1.05
2022-10-10T13:39:50.749Z,1.08
2022-10-10T13:42:36.901Z,0.90
2022-10-10T13:45:46.065Z,1.20
2022-10-10T13:48:27.758Z,1.00
2022-10-10T13:51:08.758Z,0.95
2022-10-10T13:53:43.554Z,1.00
2022-10-10T13:56:31.619Z,1.25
2022-10-10T13:59:08.051Z,1.00
2022-10-10T14:01:45.052Z,0.98
2022-10-10T14:04:12.738Z,1.27
2022-10-10T14:07:12.089Z,2.35
2022-10-10T14:09:50.000Z,1.10
2022-10-10T14:12:30.543Z,1.33
2022-10-10T14:14:59.511Z,0.93
2022-10-10T14:17:27.525Z,1.62
2022-10-10T14:19:55.643Z,2.40
2022-10-10T14:22:23.704Z,1.80
2022-10-10T14:24:51.351Z,1.42
2022-10-10T14:27:22.363Z,1.80
2022-10-10T14:29:51.062Z,1.75
2022-10-10T14:32:19.140Z,1.30
2022-10-10T14:34:47.424Z,1.27
2022-10-10T14:37:41.334Z,1.33
2022-10-10T14:40:29.442Z,1.40
2022-10-10T14:42:57.201Z,1.15
2022-10-10T14:45:25.236Z,1.75
2022-10-10T14:47:52.585Z,1.33
2022-10-10T14:50:23.213Z,1.40
2022-10-10T14:52:50.738Z,1.48
2022-10-10T14:55:18.360Z,1.10
2022-10-10T14:57:46.016Z,0.98
2022-10-10T15:00:19.046Z,1.00
2022-10-10T15:02:47.003Z,1.20
2022-10-10T15:05:15.443Z,1.27
2022-10-10T15:07:42.976Z,1.05
2022-10-10T15:10:33.405Z,1.37
2022-10-10T15:13:00.133Z,1.45
2022-10-10T15:15:28.050Z,1.70
2022-10-10T15:17:58.702Z,1.33
2022-10-10T15:20:31.364Z,1.77
2022-10-10T15:23:01.101Z,1.62
2022-10-10T15:25:33.291Z,2.05
2022-10-10T15:28:04.765Z,1.73
2022-10-10T15:30:32.488Z,1.85
2022-10-10T15:33:00.114Z,1.67
2022-10-10T15:35:44.648Z,1.85
2022-10-10T15:38:16.453Z,1.55
2022-10-10T15:40:44.172Z,1.70
2022-10-10T15:43:11.497Z,1.83
2022-10-10T15:46:01.624Z,1.92
2022-10-10T15:48:31.056Z,2.42
2022-10-10T15:50:58.648Z,1.85
2022-10-10T15:53:28.562Z,2.05
2022-10-10T15:55:56.342Z,1.87
2022-10-10T15:58:23.692Z,2.05
2022-10-10T16:00:51.259Z,2.17
2022-10-10T16:03:20.032Z,1.90
2022-10-10T16:05:47.366Z,2.10
2022-10-10T16:08:15.045Z,2.20
2022-10-10T16:10:43.584Z,2.37
2022-10-10T16:13:11.474Z,2.40
2022-10-10T16:15:38.903Z,2.70
2022-10-10T16:18:06.783Z,2.97
2022-10-10T16:20:34.141Z,3.40
2022-10-10T16:23:01.522Z,3.40
2022-10-10T16:25:29.133Z,3.60
2022-10-10T16:27:56.732Z,3.87
2022-10-10T16:30:24.385Z,4.32
2022-10-10T16:32:52.078Z,4.80
2022-10-10T16:35:19.689Z,4.53
2022-10-10T16:37:47.097Z,5.28
2022-10-10T16:40:14.734Z,5.32
2022-10-10T16:42:42.117Z,5.37
2022-10-10T16:45:10.581Z,6.03
2022-10-10T16:47:38.745Z,5.47
2022-10-10T16:50:06.582Z,6.53
2022-10-10T16:52:38.261Z,6.75
2022-10-10T16:55:07.566Z,6.47
2022-10-10T16:57:36.280Z,6.50
2022-10-10T17:00:05.763Z,5.93
2022-10-10T17:02:33.672Z,6.32
2022-10-10T17:05:01.369Z,6.05
2022-10-10T17:07:28.791Z,6.32
2022-10-10T17:09:56.495Z,5.32
2022-10-10T17:12:23.873Z,5.55
2022-10-10T17:14:51.313Z,4.80
2022-10-10T17:17:19.490Z,4.55
2022-10-10T17:19:49.237Z,4.55
2022-10-10T17:22:17.058Z,4.25
2022-10-10T17:24:44.720Z,3.78
2022-10-10T17:27:12.247Z,4.55
2022-10-10T17:29:40.119Z,5.82
2022-10-10T17:32:07.904Z,6.03
2022-10-10T17:34:35.359Z,5.45
2022-10-10T17:37:03.663Z,6.78
2022-10-10T17:39:31.953Z,11.70
2022-10-10T17:42:00.305Z,8.35
2022-10-10T17:44:28.093Z,13.15
2022-10-10T17:46:55.789Z,9.63
2022-10-10T17:49:23.427Z,8.80
2022-10-10T17:51:50.936Z,8.35
2022-10-10T17:54:19.154Z,7.85
2022-10-10T17:56:46.747Z,9.52
2022-10-10T17:59:14.227Z,14.87
2022-10-10T18:01:42.241Z,14.20
2022-10-10T18:04:11.161Z,16.98
2022-10-10T18:06:38.525Z,29.48
2022-10-10T18:09:06.266Z,23.70
2022-10-10T18:11:33.878Z,24.00
2022-10-10T18:14:01.355Z,24.20
2022-10-10T18:16:32.959Z,24.70
2022-10-10T18:19:04.190Z,22.35
2022-10-10T18:21:31.893Z,22.58
2022-10-10T18:24:01.047Z,21.92
2022-10-10T18:26:30.006Z,21.58
2022-10-10T18:28:58.190Z,19.98
2022-10-10T18:31:28.665Z,18.85
2022-10-10T18:33:56.847Z,21.02
2022-10-10T18:36:27.424Z,19.85
2022-10-10T18:38:58.605Z,20.80
2022-10-10T18:41:30.559Z,22.10
2022-10-10T18:43:57.973Z,20.92
2022-10-10T18:46:25.934Z,21.33
2022-10-10T18:48:54.346Z,21.00
2022-10-10T18:51:24.798Z,25.62
2022-10-10T18:53:56.452Z,26.55
2022-10-10T18:56:26.731Z,24.52
2022-10-10T18:58:57.561Z,23.80
2022-10-10T19:01:26.682Z,31.77
2022-10-10T19:03:55.308Z,35.97
2022-10-10T19:06:24.182Z,41.20
2022-10-10T19:08:54.368Z,30.37
2022-10-10T19:11:28.686Z,26.60
2022-10-10T19:13:58.272Z,100.90
2022-10-10T19:16:26.120Z,110.03
2022-10-10T19:18:58.094Z,48.47
2022-10-10T19:21:28.090Z,71.47
2022-10-10T19:23:55.586Z,25.45
2022-10-10T19:26:23.041Z,24.80
2022-10-10T19:28:50.973Z,25.95
2022-10-10T19:31:20.364Z,24.33
2022-10-10T19:33:51.695Z,21.77
2022-10-10T19:36:19.993Z,21.52
2022-10-10T19:38:47.559Z,23.67
2022-10-10T19:41:15.088Z,20.95
2022-10-10T19:43:44.045Z,19.00
2022-10-10T19:46:13.841Z,24.85
2022-10-10T19:48:41.368Z,23.95
2022-10-10T19:51:12.795Z,28.65
2022-10-10T19:53:41.892Z,26.05
2022-10-10T19:56:14.372Z,18.67
2022-10-10T19:58:43.291Z,15.85
2022-10-10T20:01:13.902Z,13.30
2022-10-10T20:03:42.839Z,10.18
2022-10-10T20:06:10.443Z,9.20
2022-10-10T20:08:38.576Z,10.95
2022-10-10T20:11:06.603Z,14.10
2022-10-10T20:13:34.725Z,13.77
2022-10-10T20:16:04.285Z,13.20
2022-10-10T20:18:34.457Z,14.82
2022-10-10T20:21:16.358Z,13.90
2022-10-10T20:23:46.093Z,10.10
2022-10-10T20:26:16.858Z,9.32
2022-10-10T20:28:45.046Z,9.10
2022-10-10T20:31:21.455Z,9.80
2022-10-10T20:33:50.562Z,12.55
2022-10-10T20:36:18.831Z,16.83
2022-10-10T20:38:52.809Z,16.75
2022-10-10T20:41:21.491Z,17.02
2022-10-10T20:43:49.001Z,15.57
2022-10-10T20:46:16.467Z,14.00
2022-10-10T20:48:44.205Z,17.17
2022-10-10T20:51:13.240Z,16.33
2022-10-10T20:53:43.996Z,17.33
2022-10-10T20:56:12.889Z,14.60
2022-10-10T20:58:40.906Z,18.62
2022-10-10T21:01:13.743Z,14.75
2022-10-10T21:03:42.884Z,15.35
2022-10-10T21:06:13.298Z,16.20
2022-10-10T21:08:41.691Z,16.83
2022-10-10T21:11:11.302Z,17.85
2022-10-10T21:13:40.922Z,20.48
2022-10-10T21:16:13.959Z,16.08
2022-10-10T21:18:44.522Z,15.30
2022-10-10T21:21:17.589Z,15.18
2022-10-10T21:23:46.496Z,13.50
2022-10-10T21:26:20.201Z,11.12
2022-10-10T21:28:52.705Z,10.07
2022-10-10T21:31:23.533Z,8.80
2022-10-10T21:33:51.828Z,7.57
2022-10-10T21:36:20.413Z,8.05
2022-10-10T21:38:48.026Z,8.30
2022-10-10T21:41:21.744Z,9.13
2022-10-10T21:43:54.876Z,8.98
2022-10-10T21:46:27.784Z,8.02
2022-10-10T21:48:56.975Z,8.05
2022-10-10T21:51:25.508Z,7.00
2022-10-10T21:53:55.331Z,7.10
2022-10-10T21:56:22.797Z,8.68
2022-10-10T21:58:50.436Z,7.47
2022-10-10T22:01:20.010Z,6.35
2022-10-10T22:03:49.640Z,6.25
2022-10-10T22:06:19.519Z,5.10
2022-10-10T22:08:47.580Z,6.25
2022-10-10T22:11:21.852Z,5.28
2022-10-10T22:13:49.531Z,5.62
2022-10-10T22:16:17.416Z,6.70
2022-10-10T22:18:44.873Z,6.50
2022-10-10T22:21:15.278Z,6.97
2022-10-10T22:23:44.270Z,8.10
2022-10-10T22:26:13.611Z,8.07
2022-10-10T22:28:41.053Z,8.38
2022-10-10T22:31:11.333Z,8.88
2022-10-10T22:33:39.091Z,9.05
2022-10-10T22:36:07.356Z,9.18
2022-10-10T22:38:40.919Z,10.05
2022-10-10T22:41:08.957Z,8.45
2022-10-10T22:43:36.617Z,9.57
2022-10-10T22:46:04.256Z,9.85
2022-10-10T22:48:32.016Z,10.07
2022-10-10T22:51:06.073Z,8.52
2022-10-10T22:53:34.119Z,7.47
2022-10-10T22:56:02.253Z,6.00
2022-10-10T22:58:31.855Z,6.32
2022-10-10T23:01:11.710Z,7.37
2022-10-10T23:03:39.519Z,6.53
2022-10-10T23:06:07.547Z,7.07
2022-10-10T23:08:35.628Z,6.85
2022-10-10T23:11:03.845Z,6.95
2022-10-10T23:13:31.807Z,7.00
2022-10-10T23:15:59.262Z,6.25
2022-10-10T23:18:28.251Z,6.00
2022-10-10T23:20:55.996Z,5.75
2022-10-10T23:23:23.815Z,6.75
2022-10-10T23:25:51.791Z,7.07
2022-10-10T23:28:19.559Z,7.75
2022-10-10T23:30:48.318Z,6.95
2022-10-10T23:33:17.042Z,7.62
2022-10-10T23:35:44.516Z,7.97
2022-10-10T23:38:31.941Z,7.53
2022-10-10T23:41:19.556Z,6.82
2022-10-10T23:44:07.684Z,6.93
2022-10-10T23:46:51.834Z,6.75
2022-10-10T23:49:36.164Z,8.20
2022-10-10T23:52:19.711Z,6.72
2022-10-10T23:55:02.986Z,6.32
2022-10-10T23:57:46.831Z,7.00
